Temp: 9.6°C   Baro: 991.0mb
  Wind: 2.0mph   Dir: SSE (151°)
  Rain: 3.6mm (0.0mm/hr)
  Solar: 0W/m2  Hum: 90%
 
Bath Spa Weather Station Historical Data
Daily Summary for August 3, 2019 Units:  Both    English   Metric
Daily Weekly Monthly Yearly Custom
  High: Low: Average:
Temperature: 56.9 °F /  13.8 °C 37.9 °F /  3.3 °C 48.4 °F /  9.1 °C
Dew Point: 55.2 °F /  12.9 °C 35.8 °F /  2.1 °C 44.7 °F /  7.1 °C
Humidity: 94% 67.7% 87%
Wind Speed: 12mph /  19.3km/h - 3.3mph /  5.3km/h
Wind Gust: 23mph /  37km/h - -
Wind- - South
Pressure: 30.19 in /  1022.2 hPa 29.64 in /  1003.6 hPa -
Precipitation: 0.06 in /  1.52 mm    
Historical Graphs
 
 
Tabular Data for August 3, 2019
Time Temperature Dew Point Pressure Wind Wind Speed Wind Gust Humidity Rainfall Rate (Hourly) solar
00:04 41.1 °F /  5.1 °C 38.4 °F /  3.6 °C 30.19in /  1022.2hPa Calm     90% 0.00in /  0mm 0 W/m2
00:09 41 °F /  5 °C 38.1 °F /  3.4 °C 30.19in /  1022.2hPa Calm     89.5% 0.00in /  0mm 0 W/m2
00:14 41 °F /  5 °C 38.3 °F /  3.5 °C 30.19in /  1022.2hPa Calm     90% 0.00in /  0mm 0 W/m2
00:19 41 °F /  5 °C 38.3 °F /  3.5 °C 30.19in /  1022.2hPa Calm     90% 0.00in /  0mm 0 W/m2
00:24 40.8 °F /  4.9 °C 38.1 °F /  3.4 °C 30.19in /  1022.2hPa Calm     90% 0.00in /  0mm 0 W/m2
00:29 40.8 °F /  4.9 °C 38.1 °F /  3.4 °C 30.19in /  1022.2hPa Calm     90% 0.00in /  0mm 0 W/m2
00:34 40.6 °F /  4.8 °C 37.9 °F /  3.3 °C 30.19in /  1022.2hPa Calm     90% 0.00in /  0mm 0 W/m2
00:39 40.5 °F /  4.7 °C 37.8 °F /  3.2 °C 30.19in /  1022.2hPa Calm     90% 0.00in /  0mm 0 W/m2
00:44 40.5 °F /  4.7 °C 37.8 °F /  3.2 °C 30.19in /  1022.2hPa Calm     90% 0.00in /  0mm 0 W/m2
00:49 40.5 °F /  4.7 °C 37.8 °F /  3.2 °C 30.19in /  1022.2hPa Calm     90% 0.00in /  0mm 0 W/m2
00:54 40.5 °F /  4.7 °C 37.8 °F /  3.2 °C 30.18in /  1021.9hPa Calm     90% 0.00in /  0mm 0 W/m2
00:59 40.5 °F /  4.7 °C 37.8 °F /  3.2 °C 30.19in /  1022.2hPa Calm     90% 0.00in /  0mm 0 W/m2
01:04 40.5 °F /  4.7 °C 37.8 °F /  3.2 °C 30.18in /  1021.9hPa Calm     90% 0.00in /  0mm 0 W/m2
01:09 40.5 °F /  4.7 °C 37.8 °F /  3.2 °C 30.18in /  1021.9hPa Calm     90% 0.00in /  0mm 0 W/m2
01:14 40.4 °F /  4.7 °C 37.7 °F /  3.2 °C 30.18in /  1021.9hPa Calm     90% 0.00in /  0mm 0 W/m2
01:19 40.3 °F /  4.6 °C 37.6 °F /  3.1 °C 30.18in /  1021.9hPa Calm     90% 0.00in /  0mm 0 W/m2
01:24 40.3 °F /  4.6 °C 37.6 °F /  3.1 °C 30.18in /  1021.9hPa Calm     90% 0.00in /  0mm 0 W/m2
01:29 40 °F /  4.4 °C 37.3 °F /  2.9 °C 30.18in /  1021.9hPa Calm     90% 0.00in /  0mm 0 W/m2
01:34 39.9 °F /  4.4 °C 37.5 °F /  3.1 °C 30.17in /  1021.6hPa Calm     90.7% 0.00in /  0mm 0 W/m2
01:39 39.9 °F /  4.4 °C 37.3 °F /  2.9 °C 30.17in /  1021.6hPa Calm     90.2% 0.00in /  0mm 0 W/m2
01:44 39.9 °F /  4.4 °C 37.5 °F /  3.1 °C 30.17in /  1021.6hPa NW 0.2mph /  0.3km/h 1mph /  1.6km/h 90.6% 0.00in /  0mm 0 W/m2
01:49 39.9 °F /  4.4 °C 37.6 °F /  3.1 °C 30.17in /  1021.6hPa Calm   1mph /  1.6km/h 91% 0.00in /  0mm 0 W/m2
01:54 39.9 °F /  4.4 °C 37.6 °F /  3.1 °C 30.17in /  1021.6hPa Calm     91% 0.00in /  0mm 0 W/m2
01:59 39.8 °F /  4.3 °C 37.5 °F /  3.1 °C 30.17in /  1021.6hPa Calm     91% 0.00in /  0mm 0 W/m2
02:04 39.7 °F /  4.3 °C 37.4 °F /  3 °C 30.16in /  1021.2hPa Calm     91% 0.00in /  0mm 0 W/m2
02:09 39.7 °F /  4.3 °C 37.4 °F /  3 °C 30.16in /  1021.2hPa Calm     91% 0.00in /  0mm 0 W/m2
02:14 39.7 °F /  4.3 °C 37.3 °F /  2.9 °C 30.16in /  1021.2hPa Calm     91% 0.00in /  0mm 0 W/m2
02:19 39.6 °F /  4.2 °C 37.2 °F /  2.9 °C 30.16in /  1021.2hPa Calm     91% 0.00in /  0mm 0 W/m2
02:24 39.6 °F /  4.2 °C 37.2 °F /  2.9 °C 30.16in /  1021.2hPa Calm     91% 0.00in /  0mm 0 W/m2
02:29 39.6 °F /  4.2 °C 37.2 °F /  2.9 °C 30.15in /  1020.9hPa Calm     91% 0.00in /  0mm 0 W/m2
02:34 39.5 °F /  4.2 °C 37.1 °F /  2.8 °C 30.15in /  1020.9hPa Calm     91% 0.00in /  0mm 0 W/m2
02:39 39.4 °F /  4.1 °C 37 °F /  2.8 °C 30.15in /  1020.9hPa Calm     91% 0.00in /  0mm 0 W/m2
02:44 39.3 °F /  4.1 °C 36.9 °F /  2.7 °C 30.15in /  1020.9hPa Calm     91% 0.00in /  0mm 0 W/m2
02:49 39.2 °F /  4 °C 36.9 °F /  2.7 °C 30.15in /  1020.9hPa Calm     91% 0.00in /  0mm 0 W/m2
02:54 39.2 °F /  4 °C 36.9 °F /  2.7 °C 30.15in /  1020.9hPa Calm     91% 0.00in /  0mm 0 W/m2
02:59 39.2 °F /  4 °C 36.9 °F /  2.7 °C 30.15in /  1020.9hPa Calm     91% 0.00in /  0mm 0 W/m2
03:04 39 °F /  3.9 °C 36.7 °F /  2.6 °C 30.15in /  1020.9hPa Calm     91% 0.00in /  0mm 0 W/m2
03:09 39 °F /  3.9 °C 36.7 °F /  2.6 °C 30.15in /  1020.9hPa Calm     91% 0.00in /  0mm 0 W/m2
03:14 39 °F /  3.9 °C 36.7 °F /  2.6 °C 30.15in /  1020.9hPa Calm     91% 0.00in /  0mm 0 W/m2
03:19 39 °F /  3.9 °C 36.7 °F /  2.6 °C 30.15in /  1020.9hPa Calm     91% 0.00in /  0mm 0 W/m2
03:24 39 °F /  3.9 °C 36.7 °F /  2.6 °C 30.15in /  1020.9hPa Calm     91.2% 0.00in /  0mm 0 W/m2
03:29 39 °F /  3.9 °C 36.7 °F /  2.6 °C 30.15in /  1020.9hPa Calm     91.3% 0.00in /  0mm 0 W/m2
03:34 38.9 °F /  3.8 °C 36.6 °F /  2.6 °C 30.15in /  1020.9hPa Calm     91% 0.00in /  0mm 0 W/m2
03:39 38.8 °F /  3.8 °C 36.5 °F /  2.5 °C 30.15in /  1020.9hPa Calm     91.2% 0.00in /  0mm 0 W/m2
03:44 38.8 °F /  3.8 °C 36.6 °F /  2.6 °C 30.14in /  1020.5hPa NW 0.1mph /  0.2km/h 1mph /  1.6km/h 91.5% 0.00in /  0mm 0 W/m2
03:49 38.7 °F /  3.7 °C 36.5 °F /  2.5 °C 30.14in /  1020.5hPa Calm     92% 0.00in /  0mm 0 W/m2
03:54 38.7 °F /  3.7 °C 36.5 °F /  2.5 °C 30.14in /  1020.5hPa Calm     92% 0.00in /  0mm 0 W/m2
03:59 38.6 °F /  3.7 °C 36.4 °F /  2.4 °C 30.14in /  1020.5hPa Calm     92% 0.00in /  0mm 0 W/m2
04:04 38.5 °F /  3.6 °C 36.3 °F /  2.4 °C 30.14in /  1020.5hPa Calm     92% 0.00in /  0mm 0 W/m2
04:09 38.3 °F /  3.5 °C 36.1 °F /  2.3 °C 30.14in /  1020.5hPa Calm     92% 0.00in /  0mm 0 W/m2
04:14 38.3 °F /  3.5 °C 36.1 °F /  2.3 °C 30.14in /  1020.5hPa Calm     92% 0.00in /  0mm 0 W/m2
04:19 38.3 °F /  3.5 °C 36.1 °F /  2.3 °C 30.14in /  1020.5hPa Calm     92% 0.00in /  0mm 0 W/m2
04:24 38.3 °F /  3.5 °C 36.1 °F /  2.3 °C 30.14in /  1020.5hPa Calm     92% 0.00in /  0mm 0 W/m2
04:29 38.2 °F /  3.4 °C 36.1 °F /  2.3 °C 30.13in /  1020.2hPa Calm     92% 0.00in /  0mm 0 W/m2
04:34 38.2 °F /  3.4 °C 36 °F /  2.2 °C 30.13in /  1020.2hPa Calm     92% 0.00in /  0mm 0 W/m2
04:39 38.1 °F /  3.4 °C 36 °F /  2.2 °C 30.13in /  1020.2hPa Calm     92% 0.00in /  0mm 0 W/m2
04:44 38 °F /  3.3 °C 35.9 °F /  2.2 °C 30.13in /  1020.2hPa Calm     92% 0.00in /  0mm 0 W/m2
04:49 37.9 °F /  3.3 °C 35.8 °F /  2.1 °C 30.13in /  1020.2hPa Calm     92% 0.00in /  0mm 0 W/m2
04:54 37.9 °F /  3.3 °C 35.8 °F /  2.1 °C 30.13in /  1020.2hPa Calm     92% 0.00in /  0mm 0 W/m2
04:59 37.9 °F /  3.3 °C 35.8 °F /  2.1 °C 30.12in /  1019.9hPa Calm     92% 0.00in /  0mm 0 W/m2
05:04 37.9 °F /  3.3 °C 35.8 °F /  2.1 °C 30.12in /  1019.9hPa Calm     92% 0.00in /  0mm 0 W/m2
05:09 38 °F /  3.3 °C 35.9 °F /  2.2 °C 30.12in /  1019.9hPa Calm     92% 0.00in /  0mm 0 W/m2
05:14 38.1 °F /  3.4 °C 36 °F /  2.2 °C 30.12in /  1019.9hPa Calm     92% 0.00in /  0mm 0 W/m2
05:19 38.1 °F /  3.4 °C 36 °F /  2.2 °C 30.12in /  1019.9hPa Calm     92% 0.00in /  0mm 0 W/m2
05:24 38.1 °F /  3.4 °C 36 °F /  2.2 °C 30.12in /  1019.9hPa Calm     92% 0.00in /  0mm 0 W/m2
05:29 38.1 °F /  3.4 °C 36 °F /  2.2 °C 30.12in /  1019.9hPa Calm     92% 0.00in /  0mm 0 W/m2
05:34 38.1 °F /  3.4 °C 36 °F /  2.2 °C 30.12in /  1019.9hPa Calm     92% 0.00in /  0mm 0 W/m2
05:39 38.1 °F /  3.4 °C 36 °F /  2.2 °C 30.11in /  1019.5hPa Calm     92% 0.00in /  0mm 0 W/m2
05:44 38.2 °F /  3.4 °C 36.1 °F /  2.3 °C 30.11in /  1019.5hPa Calm     92% 0.00in /  0mm 0 W/m2
05:49 38.3 °F /  3.5 °C 36.1 °F /  2.3 °C 30.11in /  1019.5hPa Calm     92% 0.00in /  0mm 0 W/m2
05:54 38.3 °F /  3.5 °C 36.1 °F /  2.3 °C 30.11in /  1019.5hPa Calm     92% 0.00in /  0mm 0 W/m2
05:59 38.3 °F /  3.5 °C 36.1 °F /  2.3 °C 30.11in /  1019.5hPa Calm     92% 0.00in /  0mm 0 W/m2
06:04 38.5 °F /  3.6 °C 36.3 °F /  2.4 °C 30.11in /  1019.5hPa Calm     92% 0.00in /  0mm 0 W/m2
06:09 38.6 °F /  3.7 °C 36.4 °F /  2.4 °C 30.10in /  1019.2hPa Calm     92% 0.00in /  0mm 0 W/m2
06:14 38.8 °F /  3.8 °C 36.6 °F /  2.6 °C 30.10in /  1019.2hPa Calm     92% 0.00in /  0mm 0 W/m2
06:19 38.9 °F /  3.8 °C 36.9 °F /  2.7 °C 30.10in /  1019.2hPa Calm     92.3% 0.00in /  0mm 0 W/m2
06:24 39 °F /  3.9 °C 37.1 °F /  2.8 °C 30.10in /  1019.2hPa Calm     92.8% 0.00in /  0mm 0 W/m2
06:29 39 °F /  3.9 °C 37.2 °F /  2.9 °C 30.10in /  1019.2hPa Calm     93% 0.00in /  0mm 0 W/m2
06:34 39.1 °F /  3.9 °C 37.3 °F /  2.9 °C 30.10in /  1019.2hPa Calm     93% 0.00in /  0mm 0 W/m2
06:39 39.2 °F /  4 °C 37.4 °F /  3 °C 30.11in /  1019.5hPa Calm     93% 0.00in /  0mm 0 W/m2
06:44 39.4 °F /  4.1 °C 37.6 °F /  3.1 °C 30.11in /  1019.5hPa Calm     93% 0.00in /  0mm 0 W/m2
06:49 39.6 °F /  4.2 °C 37.8 °F /  3.2 °C 30.11in /  1019.5hPa Calm     93% 0.00in /  0mm 0 W/m2
06:54 39.6 °F /  4.2 °C 37.8 °F /  3.2 °C 30.11in /  1019.5hPa NW 0.1mph /  0.2km/h 1mph /  1.6km/h 93% 0.00in /  0mm 0 W/m2
06:59 39.7 °F /  4.3 °C 37.9 °F /  3.3 °C 30.10in /  1019.2hPa Calm   1mph /  1.6km/h 93% 0.00in /  0mm 0 W/m2
07:04 39.9 °F /  4.4 °C 38.1 °F /  3.4 °C 30.10in /  1019.2hPa Calm     93% 0.00in /  0mm 0 W/m2
07:09 40.3 °F /  4.6 °C 38.5 °F /  3.6 °C 30.10in /  1019.2hPa Calm     93% 0.00in /  0mm 0 W/m2
07:14 40.6 °F /  4.8 °C 38.8 °F /  3.8 °C 30.10in /  1019.2hPa NW 0.2mph /  0.3km/h 1mph /  1.6km/h 93% 0.00in /  0mm 0 W/m2
07:19 40.6 °F /  4.8 °C 38.8 °F /  3.8 °C 30.10in /  1019.2hPa Calm     93% 0.00in /  0mm 0 W/m2
07:24 40.6 °F /  4.8 °C 38.8 °F /  3.8 °C 30.10in /  1019.2hPa Calm     93% 0.00in /  0mm 0 W/m2
07:29 40.9 °F /  4.9 °C 39.1 °F /  3.9 °C 30.10in /  1019.2hPa Calm     93% 0.00in /  0mm 0 W/m2
07:34 40.9 °F /  4.9 °C 39.1 °F /  3.9 °C 30.10in /  1019.2hPa Calm     93% 0.00in /  0mm 0 W/m2
07:39 41.2 °F /  5.1 °C 39.4 °F /  4.1 °C 30.09in /  1018.8hPa Calm     93% 0.00in /  0mm 7 W/m2
07:44 41.4 °F /  5.2 °C 39.6 °F /  4.2 °C 30.09in /  1018.8hPa Calm     93% 0.00in /  0mm 14 W/m2
07:49 41.4 °F /  5.2 °C 39.6 °F /  4.2 °C 30.09in /  1018.8hPa NW 0.2mph /  0.3km/h 1mph /  1.6km/h 93% 0.00in /  0mm 16 W/m2
07:54 41.4 °F /  5.2 °C 39.6 °F /  4.2 °C 30.09in /  1018.8hPa NW 0.4mph /  0.6km/h 2mph /  3.2km/h 93% 0.00in /  0mm 18 W/m2
07:59 41.5 °F /  5.3 °C 39.7 °F /  4.3 °C 30.09in /  1018.8hPa NW 0.1mph /  0.2km/h 2mph /  3.2km/h 93% 0.00in /  0mm 19 W/m2
08:04 41.6 °F /  5.3 °C 39.8 °F /  4.3 °C 30.09in /  1018.8hPa NW 0.1mph /  0.2km/h 1mph /  1.6km/h 93% 0.00in /  0mm 18 W/m2
08:09 41.8 °F /  5.4 °C 40 °F /  4.4 °C 30.08in /  1018.5hPa NW 0.4mph /  0.6km/h 2mph /  3.2km/h 93% 0.00in /  0mm 21 W/m2
08:14 42 °F /  5.6 °C 40.2 °F /  4.6 °C 30.08in /  1018.5hPa NW 1.3mph /  2.1km/h 4mph /  6.4km/h 93% 0.00in /  0mm 25 W/m2
08:19 42.3 °F /  5.7 °C 40.5 °F /  4.7 °C 30.08in /  1018.5hPa NW 0.5mph /  0.8km/h 3mph /  4.8km/h 92.8% 0.00in /  0mm 30 W/m2
08:24 42.5 °F /  5.8 °C 40.6 °F /  4.8 °C 30.08in /  1018.5hPa NW 0.8mph /  1.3km/h 3mph /  4.8km/h 92.7% 0.00in /  0mm 49 W/m2
08:29 42.8 °F /  6 °C 40.6 °F /  4.8 °C 30.08in /  1018.5hPa NW 0.9mph /  1.4km/h 4mph /  6.4km/h 92% 0.00in /  0mm 83 W/m2
08:34 43.1 °F /  6.2 °C 40.9 °F /  4.9 °C 30.08in /  1018.5hPa NW 1.2mph /  1.9km/h 4mph /  6.4km/h 92% 0.00in /  0mm 84 W/m2
08:39 43.4 °F /  6.3 °C 41.3 °F /  5.2 °C 30.08in /  1018.5hPa NNW 2mph /  3.2km/h 5mph /  8km/h 92% 0.00in /  0mm 76 W/m2
08:44 43.5 °F /  6.4 °C 41.4 °F /  5.2 °C 30.07in /  1018.2hPa NE 1.5mph /  2.4km/h 5mph /  8km/h 92% 0.00in /  0mm 74 W/m2
08:49 43.7 °F /  6.5 °C 41.3 °F /  5.2 °C 30.07in /  1018.2hPa NE 1.4mph /  2.3km/h 4mph /  6.4km/h 91.2% 0.00in /  0mm 77 W/m2
08:54 44 °F /  6.7 °C 41.5 °F /  5.3 °C 30.07in /  1018.2hPa NE 1.5mph /  2.4km/h 4mph /  6.4km/h 91% 0.00in /  0mm 76 W/m2
08:59 44.2 °F /  6.8 °C 41.7 °F /  5.4 °C 30.07in /  1018.2hPa NE 2.2mph /  3.5km/h 5mph /  8km/h 91% 0.00in /  0mm 69 W/m2
09:04 44.4 °F /  6.9 °C 41.9 °F /  5.5 °C 30.07in /  1018.2hPa NE 1.4mph /  2.3km/h 5mph /  8km/h 90.7% 0.00in /  0mm 83 W/m2
09:09 44.6 °F /  7 °C 41.9 °F /  5.5 °C 30.06in /  1017.8hPa NE 1.4mph /  2.3km/h 4mph /  6.4km/h 90% 0.00in /  0mm 100 W/m2
09:14 44.9 °F /  7.2 °C 42 °F /  5.6 °C 30.06in /  1017.8hPa ENE 2.9mph /  4.7km/h 7mph /  11.3km/h 89.7% 0.00in /  0mm 125 W/m2
09:19 45 °F /  7.2 °C 42 °F /  5.6 °C 30.06in /  1017.8hPa East 2.1mph /  3.4km/h 8mph /  12.9km/h 89% 0.00in /  0mm 139 W/m2
09:24 45.1 °F /  7.3 °C 41.8 °F /  5.4 °C 30.06in /  1017.8hPa ESE 1mph /  1.6km/h 3mph /  4.8km/h 88% 0.00in /  0mm 139 W/m2
09:29 45.3 °F /  7.4 °C 41.8 °F /  5.4 °C 30.07in /  1018.2hPa ESE 0.7mph /  1.1km/h 4mph /  6.4km/h 87.1% 0.00in /  0mm 102 W/m2
09:34 45.6 °F /  7.6 °C 41.7 °F /  5.4 °C 30.07in /  1018.2hPa Calm   4mph /  6.4km/h 86.3% 0.00in /  0mm 79 W/m2
09:39 45.8 °F /  7.7 °C 41.8 °F /  5.4 °C 30.07in /  1018.2hPa ESE 0.2mph /  0.3km/h 2mph /  3.2km/h 86% 0.00in /  0mm 72 W/m2
09:44 46 °F /  7.8 °C 42.1 °F /  5.6 °C 30.07in /  1018.2hPa Calm   1mph /  1.6km/h 86% 0.00in /  0mm 90 W/m2
09:49 46.2 °F /  7.9 °C 41.9 °F /  5.5 °C 30.07in /  1018.2hPa ESE 0.4mph /  0.6km/h 2mph /  3.2km/h 85.1% 0.00in /  0mm 98 W/m2
09:54 46.3 °F /  7.9 °C 42 °F /  5.6 °C 30.06in /  1017.8hPa ESE 0.1mph /  0.2km/h 1mph /  1.6km/h 85% 0.00in /  0mm 116 W/m2
09:59 46.5 °F /  8.1 °C 42.2 °F /  5.7 °C 30.06in /  1017.8hPa ESE 1.3mph /  2.1km/h 5mph /  8km/h 85% 0.00in /  0mm 134 W/m2
10:04 46.8 °F /  8.2 °C 42.3 °F /  5.7 °C 30.06in /  1017.8hPa ESE 1.1mph /  1.8km/h 5mph /  8km/h 84.2% 0.00in /  0mm 141 W/m2
10:09 46.9 °F /  8.3 °C 42.4 °F /  5.8 °C 30.05in /  1017.5hPa ESE 2mph /  3.2km/h 7mph /  11.3km/h 84% 0.00in /  0mm 141 W/m2
10:14 47.1 °F /  8.4 °C 42.6 °F /  5.9 °C 30.05in /  1017.5hPa ESE 1.3mph /  2.1km/h 7mph /  11.3km/h 84% 0.00in /  0mm 171 W/m2
10:19 47.2 °F /  8.4 °C 42.4 °F /  5.8 °C 30.05in /  1017.5hPa ESE 1.9mph /  3.1km/h 6mph /  9.7km/h 83.1% 0.00in /  0mm 220 W/m2
10:24 47.5 °F /  8.6 °C 42.7 °F /  5.9 °C 30.05in /  1017.5hPa SE 1.5mph /  2.4km/h 5mph /  8km/h 83% 0.00in /  0mm 255 W/m2
10:29 48.3 °F /  9.1 °C 43.4 °F /  6.3 °C 30.05in /  1017.5hPa SE 3.7mph /  6km/h 8mph /  12.9km/h 83% 0.00in /  0mm 278 W/m2
10:34 48.8 °F /  9.3 °C 43.5 °F /  6.4 °C 30.05in /  1017.5hPa SSE 2.2mph /  3.5km/h 5mph /  8km/h 81.8% 0.00in /  0mm 276 W/m2
10:39 49.1 °F /  9.5 °C 43.5 °F /  6.4 °C 30.05in /  1017.5hPa SSE 1.9mph /  3.1km/h 5mph /  8km/h 81% 0.00in /  0mm 234 W/m2
10:44 49.3 °F /  9.6 °C 43.7 °F /  6.5 °C 30.04in /  1017.2hPa SSE 3.6mph /  5.8km/h 7mph /  11.3km/h 81% 0.00in /  0mm 181 W/m2
10:49 49.3 °F /  9.6 °C 43.7 °F /  6.5 °C 30.04in /  1017.2hPa SE 3mph /  4.8km/h 7mph /  11.3km/h 81% 0.00in /  0mm 188 W/m2
10:54 49.5 °F /  9.7 °C 43.9 °F /  6.6 °C 30.04in /  1017.2hPa SE 3.2mph /  5.1km/h 7mph /  11.3km/h 81% 0.00in /  0mm 188 W/m2
10:59 49.5 °F /  9.7 °C 44 °F /  6.7 °C 30.04in /  1017.2hPa SE 3.6mph /  5.8km/h 7mph /  11.3km/h 81% 0.00in /  0mm 135 W/m2
11:04 49.5 °F /  9.7 °C 43.9 °F /  6.6 °C 30.04in /  1017.2hPa SE 3.9mph /  6.3km/h 7mph /  11.3km/h 81% 0.00in /  0mm 102 W/m2
11:09 49.5 °F /  9.7 °C 43.9 °F /  6.6 °C 30.04in /  1017.2hPa SSE 3.8mph /  6.1km/h 8mph /  12.9km/h 81% 0.00in /  0mm 162 W/m2
11:14 49.6 °F /  9.8 °C 44.1 °F /  6.7 °C 30.04in /  1017.2hPa SE 3.3mph /  5.3km/h 6mph /  9.7km/h 81% 0.00in /  0mm 199 W/m2
11:19 49.7 °F /  9.8 °C 44.2 °F /  6.8 °C 30.03in /  1016.8hPa SSE 3.6mph /  5.8km/h 8mph /  12.9km/h 81% 0.00in /  0mm 199 W/m2
11:24 50 °F /  10 °C 44.3 °F /  6.8 °C 30.03in /  1016.8hPa SE 4.2mph /  6.8km/h 9mph /  14.5km/h 81% 0.00in /  0mm 211 W/m2
11:29 50.1 °F /  10.1 °C 44.5 °F /  6.9 °C 30.02in /  1016.5hPa SE 3.6mph /  5.8km/h 7mph /  11.3km/h 81% 0.00in /  0mm 227 W/m2
11:34 50.4 °F /  10.2 °C 44.8 °F /  7.1 °C 30.02in /  1016.5hPa SSE 3mph /  4.8km/h 7mph /  11.3km/h 81% 0.00in /  0mm 243 W/m2
11:39 50.6 °F /  10.3 °C 45 °F /  7.2 °C 30.01in /  1016.1hPa SE 4.8mph /  7.7km/h 8mph /  12.9km/h 81% 0.00in /  0mm 243 W/m2
11:44 51 °F /  10.6 °C 45.4 °F /  7.4 °C 30.01in /  1016.1hPa SE 2.4mph /  3.9km/h 6mph /  9.7km/h 81% 0.00in /  0mm 225 W/m2
11:49 51.4 °F /  10.8 °C 45.5 °F /  7.5 °C 30.01in /  1016.1hPa SE 4.3mph /  6.9km/h 8mph /  12.9km/h 80.2% 0.00in /  0mm 229 W/m2
11:54 51.8 °F /  11 °C 45.9 °F /  7.7 °C 30.01in /  1016.1hPa ESE 4mph /  6.4km/h 9mph /  14.5km/h 80% 0.00in /  0mm 227 W/m2
11:59 52.2 °F /  11.2 °C 46.1 °F /  7.8 °C 30.01in /  1016.1hPa SE 3.7mph /  6km/h 9mph /  14.5km/h 79.7% 0.00in /  0mm 251 W/m2
12:04 52.3 °F /  11.3 °C 46 °F /  7.8 °C 30.01in /  1016.1hPa SE 4.4mph /  7.1km/h 8mph /  12.9km/h 78.9% 0.00in /  0mm 271 W/m2
12:09 52.4 °F /  11.3 °C 46.1 °F /  7.8 °C 30.01in /  1016.1hPa SE 4.3mph /  6.9km/h 10mph /  16.1km/h 78.9% 0.00in /  0mm 292 W/m2
12:14 52.7 °F /  11.5 °C 46.2 °F /  7.9 °C 30.01in /  1016.1hPa South 3.6mph /  5.8km/h 10mph /  16.1km/h 78.4% 0.00in /  0mm 313 W/m2
12:19 52.9 °F /  11.6 °C 46.3 °F /  7.9 °C 30.01in /  1016.1hPa South 2.8mph /  4.5km/h 6mph /  9.7km/h 78% 0.00in /  0mm 454 W/m2
12:24 53.2 °F /  11.8 °C 46.6 °F /  8.1 °C 30.01in /  1016.1hPa SSE 3.1mph /  5km/h 7mph /  11.3km/h 78% 0.00in /  0mm 454 W/m2
12:29 53.3 °F /  11.8 °C 46.7 °F /  8.2 °C 30.01in /  1016.1hPa South 2.7mph /  4.3km/h 6mph /  9.7km/h 78% 0.00in /  0mm 371 W/m2
12:34 53.7 °F /  12.1 °C 47 °F /  8.3 °C 30.00in /  1015.8hPa South 2.4mph /  3.9km/h 6mph /  9.7km/h 78% 0.00in /  0mm 336 W/m2
12:39 54.4 °F /  12.4 °C 47.2 °F /  8.4 °C 30.00in /  1015.8hPa South 4.7mph /  7.6km/h 9mph /  14.5km/h 76.6% 0.00in /  0mm 251 W/m2
12:44 55 °F /  12.8 °C 46.7 °F /  8.2 °C 30.00in /  1015.8hPa South 7.4mph /  11.9km/h 16mph /  25.7km/h 73.4% 0.00in /  0mm 227 W/m2
12:49 55.1 °F /  12.8 °C 46.3 °F /  7.9 °C 29.99in /  1015.5hPa South 6.8mph /  10.9km/h 13mph /  20.9km/h 72% 0.00in /  0mm 202 W/m2
12:54 55 °F /  12.8 °C 46.2 °F /  7.9 °C 29.98in /  1015.1hPa South 7.4mph /  11.9km/h 16mph /  25.7km/h 71.9% 0.00in /  0mm 163 W/m2
12:59 55 °F /  12.8 °C 46.2 °F /  7.9 °C 29.98in /  1015.1hPa SSW 7.2mph /  11.6km/h 13mph /  20.9km/h 72% 0.00in /  0mm 151 W/m2
13:04 55 °F /  12.8 °C 46.2 °F /  7.9 °C 29.98in /  1015.1hPa South 9mph /  14.5km/h 15mph /  24.1km/h 72% 0.00in /  0mm 156 W/m2
13:09 55.1 °F /  12.8 °C 46.5 °F /  8.1 °C 29.97in /  1014.8hPa South 5.6mph /  9km/h 14mph /  22.5km/h 72.6% 0.00in /  0mm 895 W/m2
13:14 56.1 °F /  13.4 °C 47.1 °F /  8.4 °C 29.96in /  1014.4hPa SSE 8.4mph /  13.5km/h 14mph /  22.5km/h 71.5% 0.00in /  0mm 900 W/m2
13:19 56.2 °F /  13.4 °C 46.5 °F /  8.1 °C 29.95in /  1014.1hPa SSE 9.4mph /  15.1km/h 16mph /  25.7km/h 70% 0.00in /  0mm 366 W/m2
13:24 55.9 °F /  13.3 °C 46.2 °F /  7.9 °C 29.95in /  1014.1hPa South 7.8mph /  12.6km/h 16mph /  25.7km/h 70% 0.00in /  0mm 260 W/m2
13:29 56 °F /  13.3 °C 46.2 °F /  7.9 °C 29.95in /  1014.1hPa South 6.6mph /  10.6km/h 13mph /  20.9km/h 69.8% 0.00in /  0mm 366 W/m2
13:34 56.3 °F /  13.5 °C 46.1 °F /  7.8 °C 29.94in /  1013.8hPa South 8.9mph /  14.3km/h 14mph /  22.5km/h 68.5% 0.00in /  0mm 540 W/m2
13:39 56.6 °F /  13.7 °C 46 °F /  7.8 °C 29.94in /  1013.8hPa South 10.1mph /  16.3km/h 19mph /  30.6km/h 67.7% 0.00in /  0mm 540 W/m2
13:44 56.3 °F /  13.5 °C 45.8 °F /  7.7 °C 29.93in /  1013.4hPa South 7.1mph /  11.4km/h 17mph /  27.4km/h 67.8% 0.00in /  0mm 348 W/m2
13:49 56.4 °F /  13.6 °C 46 °F /  7.8 °C 29.93in /  1013.4hPa SSE 6.9mph /  11.1km/h 14mph /  22.5km/h 68% 0.00in /  0mm 443 W/m2
13:54 56.6 °F /  13.7 °C 46.1 °F /  7.8 °C 29.93in /  1013.4hPa SSE 8.2mph /  13.2km/h 14mph /  22.5km/h 67.8% 0.00in /  0mm 380 W/m2
13:59 56.6 °F /  13.7 °C 46.1 °F /  7.8 °C 29.93in /  1013.4hPa South 8.8mph /  14.2km/h 16mph /  25.7km/h 68% 0.00in /  0mm 327 W/m2
14:04 56.2 °F /  13.4 °C 46.1 °F /  7.8 °C 29.93in /  1013.4hPa SSE 7.9mph /  12.7km/h 16mph /  25.7km/h 68.8% 0.00in /  0mm 276 W/m2
14:09 56.1 °F /  13.4 °C 46 °F /  7.8 °C 29.92in /  1013.1hPa South 8.2mph /  13.2km/h 15mph /  24.1km/h 69% 0.00in /  0mm 239 W/m2
14:14 56.1 °F /  13.4 °C 46.1 °F /  7.8 °C 29.92in /  1013.1hPa SSE 7.8mph /  12.6km/h 15mph /  24.1km/h 69.2% 0.00in /  0mm 220 W/m2
14:19 56 °F /  13.3 °C 46.1 °F /  7.8 °C 29.92in /  1013.1hPa SSE 9.3mph /  15km/h 17mph /  27.4km/h 69.6% 0.00in /  0mm 202 W/m2
14:24 56 °F /  13.3 °C 46.4 °F /  8 °C 29.92in /  1013.1hPa South 5.8mph /  9.3km/h 12mph /  19.3km/h 70.4% 0.00in /  0mm 209 W/m2
14:29 56 °F /  13.3 °C 46.7 °F /  8.2 °C 29.92in /  1013.1hPa South 9.6mph /  15.4km/h 22mph /  35.4km/h 70.8% 0.00in /  0mm 192 W/m2
14:34 55.9 °F /  13.3 °C 46.8 °F /  8.2 °C 29.92in /  1013.1hPa South 7.8mph /  12.6km/h 16mph /  25.7km/h 71% 0.00in /  0mm 195 W/m2
14:39 56.1 °F /  13.4 °C 47.1 °F /  8.4 °C 29.92in /  1013.1hPa SSW 5.9mph /  9.5km/h 15mph /  24.1km/h 71.7% 0.00in /  0mm 221 W/m2
14:44 56 °F /  13.3 °C 47.2 °F /  8.4 °C 29.92in /  1013.1hPa South 7.3mph /  11.7km/h 12mph /  19.3km/h 72% 0.00in /  0mm 146 W/m2
14:49 56 °F /  13.3 °C 47.3 °F /  8.5 °C 29.92in /  1013.1hPa SSW 3.4mph /  5.5km/h 9mph /  14.5km/h 72.2% 0.00in /  0mm 162 W/m2
14:54 56.3 °F /  13.5 °C 47.8 °F /  8.8 °C 29.93in /  1013.4hPa South 4.6mph /  7.4km/h 13mph /  20.9km/h 73% 0.00in /  0mm 97 W/m2
14:59 56.2 °F /  13.4 °C 47.7 °F /  8.7 °C 29.93in /  1013.4hPa South 6.2mph /  10km/h 14mph /  22.5km/h 73% 0.00in /  0mm 67 W/m2
15:04 56.1 °F /  13.4 °C 47.7 °F /  8.7 °C 29.93in /  1013.4hPa SSW 8.1mph /  13km/h 16mph /  25.7km/h 73% 0.00in /  0mm 76 W/m2
15:09 56 °F /  13.3 °C 47.8 °F /  8.8 °C 29.93in /  1013.4hPa South 4.9mph /  7.9km/h 12mph /  19.3km/h 74% 0.00in /  0mm 76 W/m2
15:14 56 °F /  13.3 °C 47.9 °F /  8.8 °C 29.92in /  1013.1hPa SSW 6.1mph /  9.8km/h 16mph /  25.7km/h 74% 0.00in /  0mm 63 W/m2
15:19 55.9 °F /  13.3 °C 47.8 °F /  8.8 °C 29.92in /  1013.1hPa SSW 6.5mph /  10.5km/h 13mph /  20.9km/h 74% 0.00in /  0mm 51 W/m2
15:24 55.8 °F /  13.2 °C 47.7 °F /  8.7 °C 29.92in /  1013.1hPa SSW 7.4mph /  11.9km/h 14mph /  22.5km/h 74% 0.00in /  0mm 35 W/m2
15:29 55.7 °F /  13.2 °C 47.6 °F /  8.7 °C 29.92in /  1013.1hPa South 6.8mph /  10.9km/h 11mph /  17.7km/h 74% 0.00in /  0mm 62 W/m2
15:34 55.5 °F /  13.1 °C 47.7 °F /  8.7 °C 29.91in /  1012.8hPa SSE 8.6mph /  13.8km/h 14mph /  22.5km/h 75% 0.00in /  0mm 111 W/m2
15:39 55.4 °F /  13 °C 47.7 °F /  8.7 °C 29.91in /  1012.8hPa South 4.5mph /  7.2km/h 14mph /  22.5km/h 75% 0.00in /  0mm 118 W/m2
15:44 55.5 °F /  13.1 °C 48.1 °F /  8.9 °C 29.90in /  1012.4hPa South 4.8mph /  7.7km/h 10mph /  16.1km/h 75.9% 0.00in /  0mm 134 W/m2
15:49 55.4 °F /  13 °C 48 °F /  8.9 °C 29.90in /  1012.4hPa South 6.6mph /  10.6km/h 11mph /  17.7km/h 76% 0.00in /  0mm 100 W/m2
15:54 55.2 °F /  12.9 °C 48.1 °F /  8.9 °C 29.90in /  1012.4hPa South 5mph /  8km/h 9mph /  14.5km/h 76.8% 0.00in /  0mm 102 W/m2
15:59 55 °F /  12.8 °C 48.3 °F /  9.1 °C 29.89in /  1012.1hPa South 4mph /  6.4km/h 10mph /  16.1km/h 77.8% 0.01in /  0.25mm 130 W/m2
16:04 54.9 °F /  12.7 °C 48.6 °F /  9.2 °C 29.89in /  1012.1hPa South 4.1mph /  6.6km/h 8mph /  12.9km/h 79.2% 0.01in /  0.25mm 179 W/m2
16:09 54.8 °F /  12.7 °C 48.7 °F /  9.3 °C 29.88in /  1011.7hPa SSE 3.6mph /  5.8km/h 8mph /  12.9km/h 80.2% 0.01in /  0.25mm 167 W/m2
16:14 54.4 °F /  12.4 °C 48.8 °F /  9.3 °C 29.88in /  1011.7hPa South 5mph /  8km/h 10mph /  16.1km/h 81.5% 0.01in /  0.25mm 146 W/m2
16:19 54.3 °F /  12.4 °C 48.9 °F /  9.4 °C 29.88in /  1011.7hPa SSE 5.4mph /  8.7km/h 11mph /  17.7km/h 82% 0.01in /  0.25mm 142 W/m2
16:24 54.3 °F /  12.4 °C 49 °F /  9.4 °C 29.88in /  1011.7hPa SSE 4.1mph /  6.6km/h 9mph /  14.5km/h 82.3% 0.01in /  0.25mm 88 W/m2
16:29 54.3 °F /  12.4 °C 49.3 °F /  9.6 °C 29.88in /  1011.7hPa SSE 4.5mph /  7.2km/h 10mph /  16.1km/h 83% 0.01in /  0.25mm 69 W/m2
16:34 54.2 °F /  12.3 °C 49.2 °F /  9.6 °C 29.87in /  1011.4hPa SSE 4.4mph /  7.1km/h 10mph /  16.1km/h 83% 0.01in /  0.25mm 76 W/m2
16:39 54.2 °F /  12.3 °C 49.2 °F /  9.6 °C 29.87in /  1011.4hPa SSE 4.6mph /  7.4km/h 9mph /  14.5km/h 83% 0.01in /  0.25mm 77 W/m2
16:44 54.1 °F /  12.3 °C 49.1 °F /  9.5 °C 29.87in /  1011.4hPa SSE 4.4mph /  7.1km/h 8mph /  12.9km/h 83% 0.01in /  0.25mm 37 W/m2
16:49 54.1 °F /  12.3 °C 49.2 °F /  9.6 °C 29.87in /  1011.4hPa SSE 3.8mph /  6.1km/h 8mph /  12.9km/h 83.2% 0.01in /  0.25mm 49 W/m2
16:54 54 °F /  12.2 °C 49.3 °F /  9.6 °C 29.87in /  1011.4hPa SSE 3.7mph /  6km/h 9mph /  14.5km/h 83.8% 0.01in /  0.25mm 42 W/m2
16:59 54 °F /  12.2 °C 49.3 °F /  9.6 °C 29.86in /  1011.1hPa SSE 3.6mph /  5.8km/h 9mph /  14.5km/h 84% 0.01in /  0.25mm 28 W/m2
17:04 53.9 °F /  12.2 °C 49.2 °F /  9.6 °C 29.86in /  1011.1hPa SSE 4.4mph /  7.1km/h 9mph /  14.5km/h 84% 0.00in /  0mm 28 W/m2
17:09 53.8 °F /  12.1 °C 49.5 °F /  9.7 °C 29.85in /  1010.7hPa SE 3.6mph /  5.8km/h 8mph /  12.9km/h 84.9% 0.00in /  0mm 40 W/m2
17:14 53.6 °F /  12 °C 49.3 °F /  9.6 °C 29.85in /  1010.7hPa SE 3.4mph /  5.5km/h 9mph /  14.5km/h 85% 0.01in /  0.25mm 44 W/m2
17:19 53.5 °F /  11.9 °C 49.4 °F /  9.7 °C 29.85in /  1010.7hPa SE 4mph /  6.4km/h 8mph /  12.9km/h 85.7% 0.01in /  0.25mm 33 W/m2
17:24 53.4 °F /  11.9 °C 49.4 °F /  9.7 °C 29.84in /  1010.4hPa SSE 3mph /  4.8km/h 7mph /  11.3km/h 86.4% 0.01in /  0.25mm 30 W/m2
17:29 53.3 °F /  11.8 °C 49.5 °F /  9.7 °C 29.84in /  1010.4hPa SE 2.6mph /  4.2km/h 6mph /  9.7km/h 87% 0.01in /  0.25mm 21 W/m2
17:34 53.2 °F /  11.8 °C 49.7 °F /  9.8 °C 29.84in /  1010.4hPa SE 3.5mph /  5.6km/h 9mph /  14.5km/h 87.6% 0.01in /  0.25mm 14 W/m2
17:39 53.1 °F /  11.7 °C 49.6 °F /  9.8 °C 29.83in /  1010hPa SE 3.3mph /  5.3km/h 9mph /  14.5km/h 88% 0.01in /  0.25mm 14 W/m2
17:44 53.1 °F /  11.7 °C 49.6 °F /  9.8 °C 29.83in /  1010hPa SE 4.3mph /  6.9km/h 8mph /  12.9km/h 88% 0.01in /  0.25mm 14 W/m2
17:49 53.1 °F /  11.7 °C 49.8 °F /  9.9 °C 29.82in /  1009.7hPa SE 4.2mph /  6.8km/h 10mph /  16.1km/h 89% 0.01in /  0.25mm 16 W/m2
17:54 53.1 °F /  11.7 °C 49.8 °F /  9.9 °C 29.80in /  1009hPa SE 6.4mph /  10.3km/h 12mph /  19.3km/h 89% 0.01in /  0.25mm 12 W/m2
17:59 53 °F /  11.7 °C 49.8 °F /  9.9 °C 29.80in /  1009hPa SE 5.6mph /  9km/h 13mph /  20.9km/h 89.2% 0.01in /  0.25mm 7 W/m2
18:04 52.9 °F /  11.6 °C 50 °F /  10 °C 29.80in /  1009hPa SE 4.6mph /  7.4km/h 12mph /  19.3km/h 90% 0.02in /  0.51mm 5 W/m2
18:09 52.9 °F /  11.6 °C 50 °F /  10 °C 29.80in /  1009hPa SE 3.2mph /  5.1km/h 9mph /  14.5km/h 90% 0.02in /  0.51mm 0 W/m2
18:14 52.9 °F /  11.6 °C 50 °F /  10 °C 29.80in /  1009hPa SE 5.4mph /  8.7km/h 12mph /  19.3km/h 90% 0.02in /  0.51mm 0 W/m2
18:19 52.9 °F /  11.6 °C 50 °F /  10 °C 29.80in /  1009hPa SSE 4.1mph /  6.6km/h 11mph /  17.7km/h 90% 0.01in /  0.25mm 0 W/m2
18:24 53 °F /  11.7 °C 50.4 °F /  10.2 °C 29.79in /  1008.7hPa SSE 5.1mph /  8.2km/h 11mph /  17.7km/h 90.9% 0.01in /  0.25mm 5 W/m2
18:29 52.9 °F /  11.6 °C 50.4 °F /  10.2 °C 29.79in /  1008.7hPa SSE 4.5mph /  7.2km/h 11mph /  17.7km/h 91% 0.01in /  0.25mm 0 W/m2
18:34 53 °F /  11.7 °C 50.5 °F /  10.3 °C 29.79in /  1008.7hPa SSE 3.6mph /  5.8km/h 9mph /  14.5km/h 91% 0.01in /  0.25mm 0 W/m2
18:39 53.1 °F /  11.7 °C 50.5 °F /  10.3 °C 29.79in /  1008.7hPa SSE 6.7mph /  10.8km/h 13mph /  20.9km/h 91% 0.01in /  0.25mm 0 W/m2
18:44 53.1 °F /  11.7 °C 50.7 °F /  10.4 °C 29.79in /  1008.7hPa SE 4.1mph /  6.6km/h 9mph /  14.5km/h 91.8% 0.01in /  0.25mm 0 W/m2
18:49 53.1 °F /  11.7 °C 50.7 °F /  10.4 °C 29.78in /  1008.4hPa SE 4.9mph /  7.9km/h 12mph /  19.3km/h 92% 0.01in /  0.25mm 0 W/m2
18:54 53.1 °F /  11.7 °C 50.7 °F /  10.4 °C 29.78in /  1008.4hPa SE 4.7mph /  7.6km/h 11mph /  17.7km/h 92% 0.01in /  0.25mm 0 W/m2
18:59 53.1 °F /  11.7 °C 50.7 °F /  10.4 °C 29.78in /  1008.4hPa SSE 5.2mph /  8.4km/h 10mph /  16.1km/h 92% 0.01in /  0.25mm 0 W/m2
19:04 53.1 °F /  11.7 °C 50.7 °F /  10.4 °C 29.78in /  1008.4hPa SSE 6.6mph /  10.6km/h 11mph /  17.7km/h 92% 0.01in /  0.25mm 0 W/m2
19:09 53.2 °F /  11.8 °C 50.9 °F /  10.5 °C 29.78in /  1008.4hPa SSE 5.5mph /  8.9km/h 11mph /  17.7km/h 92% 0.00in /  0mm 0 W/m2
19:14 53.3 °F /  11.8 °C 51.3 °F /  10.7 °C 29.77in /  1008hPa SSE 7.7mph /  12.4km/h 18mph /  29km/h 92.7% 0.00in /  0mm 0 W/m2
19:19 53.4 °F /  11.9 °C 51.4 °F /  10.8 °C 29.76in /  1007.7hPa SSE 8.7mph /  14km/h 15mph /  24.1km/h 93% 0.00in /  0mm 0 W/m2
19:24 53.6 °F /  12 °C 51.6 °F /  10.9 °C 29.76in /  1007.7hPa SSE 7.8mph /  12.6km/h 18mph /  29km/h 93% 0.00in /  0mm 0 W/m2
19:29 53.7 °F /  12.1 °C 51.7 °F /  10.9 °C 29.76in /  1007.7hPa SSE 8mph /  12.9km/h 15mph /  24.1km/h 93% 0.00in /  0mm 0 W/m2
19:34 53.8 °F /  12.1 °C 51.8 °F /  11 °C 29.76in /  1007.7hPa SSE 7.9mph /  12.7km/h 15mph /  24.1km/h 93% 0.00in /  0mm 0 W/m2
19:39 54 °F /  12.2 °C 52 °F /  11.1 °C 29.75in /  1007.3hPa SSE 8.7mph /  14km/h 14mph /  22.5km/h 93% 0.00in /  0mm 0 W/m2
19:44 54 °F /  12.2 °C 52 °F /  11.1 °C 29.75in /  1007.3hPa SSE 8.1mph /  13km/h 15mph /  24.1km/h 93% 0.00in /  0mm 0 W/m2
19:49 54.1 °F /  12.3 °C 52.2 °F /  11.2 °C 29.74in /  1007hPa SSE 9.9mph /  15.9km/h 19mph /  30.6km/h 93% 0.00in /  0mm 0 W/m2
19:54 54.1 °F /  12.3 °C 52.2 °F /  11.2 °C 29.74in /  1007hPa SSE 9mph /  14.5km/h 19mph /  30.6km/h 93% 0.00in /  0mm 0 W/m2
19:59 54.2 °F /  12.3 °C 52.3 °F /  11.3 °C 29.74in /  1007hPa SSE 9.3mph /  15km/h 16mph /  25.7km/h 93% 0.00in /  0mm 0 W/m2
20:04 54.3 °F /  12.4 °C 52.3 °F /  11.3 °C 29.73in /  1006.7hPa SSE 8.6mph /  13.8km/h 13mph /  20.9km/h 93% 0.00in /  0mm 0 W/m2
20:09 54.4 °F /  12.4 °C 52.4 °F /  11.3 °C 29.73in /  1006.7hPa SSE 9.7mph /  15.6km/h 18mph /  29km/h 93% 0.00in /  0mm 0 W/m2
20:14 54.5 °F /  12.5 °C 52.5 °F /  11.4 °C 29.72in /  1006.3hPa SSE 8.6mph /  13.8km/h 17mph /  27.4km/h 93% 0.00in /  0mm 0 W/m2
20:19 54.6 °F /  12.6 °C 52.6 °F /  11.4 °C 29.72in /  1006.3hPa South 7.3mph /  11.7km/h 17mph /  27.4km/h 93% 0.00in /  0mm 0 W/m2
20:24 54.9 °F /  12.7 °C 52.9 °F /  11.6 °C 29.72in /  1006.3hPa South 7.4mph /  11.9km/h 17mph /  27.4km/h 93% 0.00in /  0mm 0 W/m2
20:29 55 °F /  12.8 °C 53 °F /  11.7 °C 29.72in /  1006.3hPa South 9.9mph /  15.9km/h 16mph /  25.7km/h 93% 0.00in /  0mm 0 W/m2
20:34 55.1 °F /  12.8 °C 53.1 °F /  11.7 °C 29.72in /  1006.3hPa South 10.7mph /  17.2km/h 19mph /  30.6km/h 93% 0.00in /  0mm 0 W/m2
20:39 55.2 °F /  12.9 °C 53.2 °F /  11.8 °C 29.72in /  1006.3hPa South 8.9mph /  14.3km/h 16mph /  25.7km/h 93% 0.00in /  0mm 0 W/m2
20:44 55.2 °F /  12.9 °C 53.2 °F /  11.8 °C 29.71in /  1006hPa SSE 6.8mph /  10.9km/h 16mph /  25.7km/h 93% 0.00in /  0mm 0 W/m2
20:49 55.3 °F /  12.9 °C 53.3 °F /  11.8 °C 29.71in /  1006hPa South 7mph /  11.3km/h 13mph /  20.9km/h 93% 0.00in /  0mm 0 W/m2
20:54 55.4 °F /  13 °C 53.4 °F /  11.9 °C 29.71in /  1006hPa SSE 6mph /  9.7km/h 13mph /  20.9km/h 93% 0.00in /  0mm 0 W/m2
20:59 55.4 °F /  13 °C 53.5 °F /  11.9 °C 29.70in /  1005.6hPa South 5.1mph /  8.2km/h 10mph /  16.1km/h 93.2% 0.00in /  0mm 0 W/m2
21:04 55.6 °F /  13.1 °C 54 °F /  12.2 °C 29.70in /  1005.6hPa South 7.9mph /  12.7km/h 14mph /  22.5km/h 94% 0.00in /  0mm 0 W/m2
21:09 55.6 °F /  13.1 °C 54 °F /  12.2 °C 29.69in /  1005.3hPa SSE 6.7mph /  10.8km/h 15mph /  24.1km/h 94% 0.00in /  0mm 0 W/m2
21:14 55.8 °F /  13.2 °C 54 °F /  12.2 °C 29.69in /  1005.3hPa SSE 7mph /  11.3km/h 15mph /  24.1km/h 93.8% 0.01in /  0.25mm 0 W/m2
21:19 55.8 °F /  13.2 °C 54.1 °F /  12.3 °C 29.69in /  1005.3hPa South 5.8mph /  9.3km/h 11mph /  17.7km/h 94% 0.01in /  0.25mm 0 W/m2
21:24 55.8 °F /  13.2 °C 54.1 °F /  12.3 °C 29.69in /  1005.3hPa South 6.4mph /  10.3km/h 11mph /  17.7km/h 94% 0.01in /  0.25mm 0 W/m2
21:29 55.8 °F /  13.2 °C 54.1 °F /  12.3 °C 29.69in /  1005.3hPa South 4.5mph /  7.2km/h 11mph /  17.7km/h 94% 0.01in /  0.25mm 0 W/m2
21:34 55.8 °F /  13.2 °C 54.1 °F /  12.3 °C 29.69in /  1005.3hPa South 5.6mph /  9km/h 11mph /  17.7km/h 94% 0.01in /  0.25mm 0 W/m2
21:39 55.8 °F /  13.2 °C 54.1 °F /  12.3 °C 29.69in /  1005.3hPa South 2.5mph /  4km/h 9mph /  14.5km/h 94% 0.01in /  0.25mm 0 W/m2
21:44 55.8 °F /  13.2 °C 54.1 °F /  12.3 °C 29.69in /  1005.3hPa WSW 0.6mph /  1km/h 11mph /  17.7km/h 94% 0.02in /  0.51mm 0 W/m2
21:49 55.8 °F /  13.2 °C 54.2 °F /  12.3 °C 29.69in /  1005.3hPa WSW 0.2mph /  0.3km/h 2mph /  3.2km/h 94% 0.02in /  0.51mm 0 W/m2
21:54 55.9 °F /  13.3 °C 54.3 °F /  12.4 °C 29.69in /  1005.3hPa WSW 0.4mph /  0.6km/h 3mph /  4.8km/h 94% 0.02in /  0.51mm 0 W/m2
21:59 55.9 °F /  13.3 °C 54.3 °F /  12.4 °C 29.69in /  1005.3hPa WSW 0.8mph /  1.3km/h 3mph /  4.8km/h 94% 0.02in /  0.51mm 0 W/m2
22:04 56.1 °F /  13.4 °C 54.5 °F /  12.5 °C 29.68in /  1005hPa WSW 0.2mph /  0.3km/h 2mph /  3.2km/h 94% 0.02in /  0.51mm 0 W/m2
22:09 56.2 °F /  13.4 °C 54.6 °F /  12.6 °C 29.67in /  1004.6hPa SW 1.9mph /  3.1km/h 6mph /  9.7km/h 94% 0.02in /  0.51mm 0 W/m2
22:14 56.5 °F /  13.6 °C 54.9 °F /  12.7 °C 29.67in /  1004.6hPa SW 3.3mph /  5.3km/h 8mph /  12.9km/h 94% 0.02in /  0.51mm 0 W/m2
22:19 56.7 °F /  13.7 °C 55 °F /  12.8 °C 29.66in /  1004.3hPa SSW 3.4mph /  5.5km/h 8mph /  12.9km/h 94% 0.02in /  0.51mm 0 W/m2
22:24 56.8 °F /  13.8 °C 55.2 °F /  12.9 °C 29.64in /  1003.6hPa SSW 3mph /  4.8km/h 8mph /  12.9km/h 94% 0.02in /  0.51mm 0 W/m2
22:29 56.8 °F /  13.8 °C 55.2 °F /  12.9 °C 29.64in /  1003.6hPa SW 2.1mph /  3.4km/h 8mph /  12.9km/h 94% 0.02in /  0.51mm 0 W/m2
22:34 56.9 °F /  13.8 °C 55.2 °F /  12.9 °C 29.65in /  1003.9hPa SW 4.4mph /  7.1km/h 9mph /  14.5km/h 94% 0.02in /  0.51mm 0 W/m2
22:39 56.8 °F /  13.8 °C 55.2 °F /  12.9 °C 29.65in /  1003.9hPa West 4.1mph /  6.6km/h 8mph /  12.9km/h 94% 0.02in /  0.51mm 0 W/m2
22:44 56.8 °F /  13.8 °C 55.2 °F /  12.9 °C 29.66in /  1004.3hPa West 5mph /  8km/h 9mph /  14.5km/h 94% 0.01in /  0.25mm 0 W/m2
22:49 56.8 °F /  13.8 °C 55.2 °F /  12.9 °C 29.66in /  1004.3hPa West 3.6mph /  5.8km/h 7mph /  11.3km/h 94% 0.00in /  0mm 0 W/m2
22:54 56.8 °F /  13.8 °C 55.2 °F /  12.9 °C 29.66in /  1004.3hPa West 5.3mph /  8.5km/h 11mph /  17.7km/h 94% 0.01in /  0.25mm 0 W/m2
22:59 56.8 °F /  13.8 °C 55.2 °F /  12.9 °C 29.66in /  1004.3hPa WSW 7.2mph /  11.6km/h 17mph /  27.4km/h 94% 0.01in /  0.25mm 0 W/m2
23:04 56.7 °F /  13.7 °C 55 °F /  12.8 °C 29.66in /  1004.3hPa West 6.3mph /  10.1km/h 15mph /  24.1km/h 94% 0.01in /  0.25mm 0 W/m2
23:09 56.5 °F /  13.6 °C 54.9 °F /  12.7 °C 29.66in /  1004.3hPa West 7.4mph /  11.9km/h 15mph /  24.1km/h 94% 0.01in /  0.25mm 0 W/m2
23:14 56.3 °F /  13.5 °C 54.7 °F /  12.6 °C 29.66in /  1004.3hPa West 7.5mph /  12.1km/h 15mph /  24.1km/h 94% 0.01in /  0.25mm 0 W/m2
23:19 56.3 °F /  13.5 °C 54.7 °F /  12.6 °C 29.67in /  1004.6hPa West 12mph /  19.3km/h 23mph /  37km/h 94% 0.01in /  0.25mm 0 W/m2
23:24 55.9 °F /  13.3 °C 54.3 °F /  12.4 °C 29.67in /  1004.6hPa West 11.8mph /  19km/h 23mph /  37km/h 94% 0.02in /  0.51mm 0 W/m2
23:29 55.6 °F /  13.1 °C 54 °F /  12.2 °C 29.67in /  1004.6hPa WNW 7.8mph /  12.6km/h 21mph /  33.8km/h 94% 0.02in /  0.51mm 0 W/m2
23:34 55.4 °F /  13 °C 53.8 °F /  12.1 °C 29.67in /  1004.6hPa WNW 9.9mph /  15.9km/h 22mph /  35.4km/h 94% 0.02in /  0.51mm 0 W/m2
23:39 55.4 °F /  13 °C 53.8 °F /  12.1 °C 29.67in /  1004.6hPa WNW 7.8mph /  12.6km/h 14mph /  22.5km/h 94% 0.02in /  0.51mm 0 W/m2
23:44 55.4 °F /  13 °C 53.8 °F /  12.1 °C 29.67in /  1004.6hPa WNW 6.1mph /  9.8km/h 14mph /  22.5km/h 94% 0.02in /  0.51mm 0 W/m2
23:49 55.4 °F /  13 °C 53.8 °F /  12.1 °C 29.66in /  1004.3hPa West 8.8mph /  14.2km/h 16mph /  25.7km/h 94% 0.02in /  0.51mm 0 W/m2
23:54 55.4 °F /  13 °C 53.5 °F /  11.9 °C 29.67in /  1004.6hPa West 6.8mph /  10.9km/h 14mph /  22.5km/h 93.2% 0.02in /  0.51mm 0 W/m2
23:59 55.4 °F /  13 °C 53.4 °F /  11.9 °C 29.67in /  1004.6hPa West 6.9mph /  11.1km/h 15mph /  24.1km/h 93% 0.01in /  0.25mm 0 W/m2
Bath Spa Weather
Compliments of Weather Underground - 2 mb